Rheinfels — V2AI4 — position and weather

sailwx.info

Track history (hours):
 
Tides and Currents Weather Stations Pressure Air Temp Water Temp Dewpoint Dewpoint Depression Visibility Wind Speed Wind Dir Waves Ship Positions

Rheinfels

Last reported at 2015-Apr-21 00:33 UTC. Time now 2015-Apr-21 11:40 UTC.
Position N 35°54' W 005°18'.

Length 89 m; draft 4.9 m.

Type: Cargo ship. MMSI: 304010767.

Date/timePositionNaut miles runAvg speedWind from/ knotsBaromVisibWave heightAir tempDewpointWater temp
2015-Apr-21 00:33N 35°54' W 005°18'0 0.5
2015-Apr-20 23:33N 35°54' W 005°18'0 0.0
2015-Apr-20 22:33N 35°54' W 005°18'0 0.0
2015-Apr-20 21:33N 35°54' W 005°18'0 0.0
2015-Apr-20 20:33N 35°54' W 005°18'3 2.9
2015-Apr-20 19:33N 35°56' W 005°17'1 1.1
2015-Apr-20 18:34N 35°56' W 005°19'4 4.4
2015-Apr-20 17:33N 35°57' W 005°24'260 8.9
2015-Apr-19 12:32N 38°17' W 009°58'1110.9
2015-Apr-19 11:33N 38°28' W 010°01'1211.2
2015-Apr-19 10:29N 38°39' W 010°04'2511.0
2015-Apr-19 08:11N 39°05' W 010°05'333 7.7
2015-Apr-17 13:15N 43°42' W 006°01'8 9.8
2015-Apr-17 12:24N 43°41' W 005°49'8 9.6
2015-Apr-17 11:33N 43°36' W 005°40'3 0.6
2015-Apr-17 06:25N 43°34' W 005°42'0 0.0
2015-Apr-17 05:31N 43°34' W 005°42'0 0.0
2015-Apr-17 02:25N 43°34' W 005°42'0 0.0
2015-Apr-16 20:13N 43°34' W 005°42'0 0.0
2015-Apr-16 16:31N 43°34' W 005°42'0 0.0
2015-Apr-16 13:25N 43°34' W 005°42'0 0.0
2015-Apr-16 12:31N 43°34' W 005°42'0 0.0
2015-Apr-16 11:31N 43°34' W 005°42'0 0.0
2015-Apr-16 10:13N 43°34' W 005°42'0 0.0
2015-Apr-16 08:13N 43°34' W 005°42'0 0.0
2015-Apr-16 07:31N 43°34' W 005°42'0 0.0
2015-Apr-16 06:07N 43°34' W 005°42'0 0.0
2015-Apr-16 05:13N 43°34' W 005°42'0 0.0
2015-Apr-16 04:31N 43°34' W 005°42'0 0.0
2015-Apr-16 03:31N 43°34' W 005°42'0 0.0
2015-Apr-16 02:31N 43°34' W 005°42'0 0.0
2015-Apr-16 01:31N 43°34' W 005°42'0 0.0
2015-Apr-16 00:31N 43°34' W 005°42'0 0.0
2015-Apr-15 19:31N 43°34' W 005°42'0 0.0
2015-Apr-15 18:33N 43°34' W 005°42'2 2.0
2015-Apr-15 17:33N 43°36' W 005°42'0 0.1
2015-Apr-15 16:28N 43°36' W 005°42'0 0.0
2015-Apr-15 12:22N 43°36' W 005°42'0 0.1
2015-Apr-15 11:28N 43°36' W 005°42'0 0.1
2015-Apr-15 10:22N 43°36' W 005°42'0 0.0
2015-Apr-15 09:10N 43°36' W 005°42'0 0.0
2015-Apr-15 06:28N 43°36' W 005°42'0 0.0
2015-Apr-15 05:28N 43°36' W 005°42'0 0.1
2015-Apr-15 04:22N 43°36' W 005°42'0 0.1
2015-Apr-15 03:22N 43°36' W 005°42'0 0.0
2015-Apr-15 02:28N 43°36' W 005°42'0 0.0
2015-Apr-15 01:28N 43°36' W 005°42'0 0.0
2015-Apr-15 00:28N 43°36' W 005°42'0 0.0
2015-Apr-14 23:28N 43°36' W 005°42'0 0.0
2015-Apr-14 22:22N 43°36' W 005°42'0 0.0
2015-Apr-14 21:22N 43°36' W 005°42'0 0.0
2015-Apr-14 19:22N 43°36' W 005°42'0 0.0
2015-Apr-14 18:28N 43°36' W 005°42'0 0.0
2015-Apr-14 17:16N 43°36' W 005°42'0 0.0
2015-Apr-14 16:28N 43°36' W 005°42'0 0.0
2015-Apr-14 15:22N 43°36' W 005°42'0 0.0
2015-Apr-14 14:28N 43°36' W 005°42'0 0.0
2015-Apr-14 13:10N 43°36' W 005°42'0 0.0
2015-Apr-14 12:22N 43°36' W 005°42'0 0.0
2015-Apr-14 11:28N 43°36' W 005°42'0 0.0
2015-Apr-14 10:22N 43°36' W 005°42'0 0.0
2015-Apr-14 09:28N 43°36' W 005°42'0 0.0
2015-Apr-14 08:28N 43°36' W 005°42'0 0.0
2015-Apr-14 07:22N 43°36' W 005°42'0 0.0
2015-Apr-14 06:10N 43°36' W 005°42'0 0.0
2015-Apr-14 05:22N 43°36' W 005°42'0 0.0
2015-Apr-14 04:22N 43°36' W 005°42'0 0.0
2015-Apr-14 03:28N 43°36' W 005°42'0 0.0
2015-Apr-14 02:28N 43°36' W 005°42'0 0.0
2015-Apr-14 01:22N 43°36' W 005°42'0 0.0
2015-Apr-14 00:16N 43°36' W 005°42'0 0.0
2015-Apr-13 23:28N 43°36' W 005°42'0 0.0
2015-Apr-13 22:28N 43°36' W 005°42'0 0.0
2015-Apr-13 21:28N 43°36' W 005°42'0 0.0
2015-Apr-13 20:28N 43°36' W 005°42'0 0.0
2015-Apr-13 19:28N 43°36' W 005°42'0 0.0
2015-Apr-13 18:16N 43°36' W 005°42'0 0.0
2015-Apr-13 17:28N 43°36' W 005°42'0 0.0
2015-Apr-13 16:22N 43°36' W 005°42'0 0.0
2015-Apr-13 15:28N 43°36' W 005°42'0 0.0
2015-Apr-13 14:22N 43°36' W 005°42'0 0.0
2015-Apr-13 13:16N 43°36' W 005°42'0 0.0
2015-Apr-13 12:10N 43°36' W 005°42'0 0.0
2015-Apr-13 11:22N 43°36' W 005°42'0 0.0
2015-Apr-13 10:28N 43°36' W 005°42'0 0.0
2015-Apr-13 09:28N 43°36' W 005°42'0 0.0
2015-Apr-13 08:28N 43°36' W 005°42'0 0.0
2015-Apr-13 07:28N 43°36' W 005°42'0 0.0
2015-Apr-13 06:22N 43°36' W 005°42'0 0.0
2015-Apr-13 05:22N 43°36' W 005°42'0 0.0
2015-Apr-13 04:28N 43°36' W 005°42'0 0.0
2015-Apr-13 03:28N 43°36' W 005°42'0 0.0
2015-Apr-13 02:28N 43°36' W 005°42'0 0.0
2015-Apr-13 01:16N 43°36' W 005°42'0 0.0
2015-Apr-13 00:22N 43°36' W 005°42'0 0.0
2015-Apr-12 23:28N 43°36' W 005°42'0 0.0
2015-Apr-12 22:28N 43°36' W 005°42'0 0.0
2015-Apr-12 21:22N 43°36' W 005°42'0 0.0
2015-Apr-12 20:22N 43°36' W 005°42'0 0.0
2015-Apr-12 19:22N 43°36' W 005°42'0 0.0
2015-Apr-12 18:22N 43°36' W 005°42'0 0.0
2015-Apr-12 17:22N 43°36' W 005°42'0 0.0
2015-Apr-12 16:22N 43°36' W 005°42'0 0.0
2015-Apr-12 15:28N 43°36' W 005°42'0 0.0
2015-Apr-12 14:16N 43°36' W 005°42'0 0.0
2015-Apr-12 13:28N 43°36' W 005°42'0 0.0
2015-Apr-12 12:28N 43°36' W 005°42'0 0.0
2015-Apr-12 11:16N 43°36' W 005°42'0 0.0
2015-Apr-12 10:22N 43°36' W 005°42'0 0.0
2015-Apr-12 09:22N 43°36' W 005°42'0 0.0
2015-Apr-12 08:28N 43°36' W 005°42'0 0.0
2015-Apr-12 06:23N 43°36' W 005°42'3 3.9
2015-Apr-12 05:33N 43°39' W 005°44'  
Track history (hours):
 
Tides and Currents Weather Stations Pressure Air Temp Water Temp Dewpoint Dewpoint Depression Visibility Wind Speed Wind Dir Waves Ship Positions

Rheinfels

Last reported at 2015-Apr-21 00:33 UTC. Time now 2015-Apr-21 11:40 UTC.
Position N 35°54' W 005°18'.

Length 89 m; draft 4.9 m.

Type: Cargo ship. MMSI: 304010767.

Date/timePositionNaut miles runAvg speedWind from/ knotsBaromVisibWave heightAir tempDewpointWater temp
2015-Apr-21 00:33N 35°54' W 005°18'0 0.5
2015-Apr-20 23:33N 35°54' W 005°18'0 0.0
2015-Apr-20 22:33N 35°54' W 005°18'0 0.0
2015-Apr-20 21:33N 35°54' W 005°18'0 0.0
2015-Apr-20 20:33N 35°54' W 005°18'3 2.9
2015-Apr-20 19:33N 35°56' W 005°17'1 1.1
2015-Apr-20 18:34N 35°56' W 005°19'4 4.4
2015-Apr-20 17:33N 35°57' W 005°24'260 8.9
2015-Apr-19 12:32N 38°17' W 009°58'1110.9
2015-Apr-19 11:33N 38°28' W 010°01'1211.2
2015-Apr-19 10:29N 38°39' W 010°04'2511.0
2015-Apr-19 08:11N 39°05' W 010°05'333 7.7
2015-Apr-17 13:15N 43°42' W 006°01'8 9.8
2015-Apr-17 12:24N 43°41' W 005°49'8 9.6
2015-Apr-17 11:33N 43°36' W 005°40'3 0.6
2015-Apr-17 06:25N 43°34' W 005°42'0 0.0
2015-Apr-17 05:31N 43°34' W 005°42'0 0.0
2015-Apr-17 02:25N 43°34' W 005°42'0 0.0
2015-Apr-16 20:13N 43°34' W 005°42'0 0.0
2015-Apr-16 16:31N 43°34' W 005°42'0 0.0
2015-Apr-16 13:25N 43°34' W 005°42'0 0.0
2015-Apr-16 12:31N 43°34' W 005°42'0 0.0
2015-Apr-16 11:31N 43°34' W 005°42'0 0.0
2015-Apr-16 10:13N 43°34' W 005°42'0 0.0
2015-Apr-16 08:13N 43°34' W 005°42'0 0.0
2015-Apr-16 07:31N 43°34' W 005°42'0 0.0
2015-Apr-16 06:07N 43°34' W 005°42'0 0.0
2015-Apr-16 05:13N 43°34' W 005°42'0 0.0
2015-Apr-16 04:31N 43°34' W 005°42'0 0.0
2015-Apr-16 03:31N 43°34' W 005°42'0 0.0
2015-Apr-16 02:31N 43°34' W 005°42'0 0.0
2015-Apr-16 01:31N 43°34' W 005°42'0 0.0
2015-Apr-16 00:31N 43°34' W 005°42'0 0.0
2015-Apr-15 19:31N 43°34' W 005°42'0 0.0
2015-Apr-15 18:33N 43°34' W 005°42'2 2.0
2015-Apr-15 17:33N 43°36' W 005°42'0 0.1
2015-Apr-15 16:28N 43°36' W 005°42'0 0.0
2015-Apr-15 12:22N 43°36' W 005°42'0 0.1
2015-Apr-15 11:28N 43°36' W 005°42'0 0.1
2015-Apr-15 10:22N 43°36' W 005°42'0 0.0
2015-Apr-15 09:10N 43°36' W 005°42'0 0.0
2015-Apr-15 06:28N 43°36' W 005°42'0 0.0
2015-Apr-15 05:28N 43°36' W 005°42'0 0.1
2015-Apr-15 04:22N 43°36' W 005°42'0 0.1
2015-Apr-15 03:22N 43°36' W 005°42'0 0.0
2015-Apr-15 02:28N 43°36' W 005°42'0 0.0
2015-Apr-15 01:28N 43°36' W 005°42'0 0.0
2015-Apr-15 00:28N 43°36' W 005°42'0 0.0
2015-Apr-14 23:28N 43°36' W 005°42'0 0.0
2015-Apr-14 22:22N 43°36' W 005°42'0 0.0
2015-Apr-14 21:22N 43°36' W 005°42'0 0.0
2015-Apr-14 19:22N 43°36' W 005°42'0 0.0
2015-Apr-14 18:28N 43°36' W 005°42'0 0.0
2015-Apr-14 17:16N 43°36' W 005°42'0 0.0
2015-Apr-14 16:28N 43°36' W 005°42'0 0.0
2015-Apr-14 15:22N 43°36' W 005°42'0 0.0
2015-Apr-14 14:28N 43°36' W 005°42'0 0.0
2015-Apr-14 13:10N 43°36' W 005°42'0 0.0
2015-Apr-14 12:22N 43°36' W 005°42'0 0.0
2015-Apr-14 11:28N 43°36' W 005°42'0 0.0
2015-Apr-14 10:22N 43°36' W 005°42'0 0.0
2015-Apr-14 09:28N 43°36' W 005°42'0 0.0
2015-Apr-14 08:28N 43°36' W 005°42'0 0.0
2015-Apr-14 07:22N 43°36' W 005°42'0 0.0
2015-Apr-14 06:10N 43°36' W 005°42'0 0.0
2015-Apr-14 05:22N 43°36' W 005°42'0 0.0
2015-Apr-14 04:22N 43°36' W 005°42'0 0.0
2015-Apr-14 03:28N 43°36' W 005°42'0 0.0
2015-Apr-14 02:28N 43°36' W 005°42'0 0.0
2015-Apr-14 01:22N 43°36' W 005°42'0 0.0
2015-Apr-14 00:16N 43°36' W 005°42'0 0.0
2015-Apr-13 23:28N 43°36' W 005°42'0 0.0
2015-Apr-13 22:28N 43°36' W 005°42'0 0.0
2015-Apr-13 21:28N 43°36' W 005°42'0 0.0
2015-Apr-13 20:28N 43°36' W 005°42'0 0.0
2015-Apr-13 19:28N 43°36' W 005°42'0 0.0
2015-Apr-13 18:16N 43°36' W 005°42'0 0.0
2015-Apr-13 17:28N 43°36' W 005°42'0 0.0
2015-Apr-13 16:22N 43°36' W 005°42'0 0.0
2015-Apr-13 15:28N 43°36' W 005°42'0 0.0
2015-Apr-13 14:22N 43°36' W 005°42'0 0.0
2015-Apr-13 13:16N 43°36' W 005°42'0 0.0
2015-Apr-13 12:10N 43°36' W 005°42'0 0.0
2015-Apr-13 11:22N 43°36' W 005°42'0 0.0
2015-Apr-13 10:28N 43°36' W 005°42'0 0.0
2015-Apr-13 09:28N 43°36' W 005°42'0 0.0
2015-Apr-13 08:28N 43°36' W 005°42'0 0.0
2015-Apr-13 07:28N 43°36' W 005°42'0 0.0
2015-Apr-13 06:22N 43°36' W 005°42'0 0.0
2015-Apr-13 05:22N 43°36' W 005°42'0 0.0
2015-Apr-13 04:28N 43°36' W 005°42'0 0.0
2015-Apr-13 03:28N 43°36' W 005°42'0 0.0
2015-Apr-13 02:28N 43°36' W 005°42'0 0.0
2015-Apr-13 01:16N 43°36' W 005°42'0 0.0
2015-Apr-13 00:22N 43°36' W 005°42'0 0.0
2015-Apr-12 23:28N 43°36' W 005°42'0 0.0
2015-Apr-12 22:28N 43°36' W 005°42'0 0.0
2015-Apr-12 21:22N 43°36' W 005°42'0 0.0
2015-Apr-12 20:22N 43°36' W 005°42'0 0.0
2015-Apr-12 19:22N 43°36' W 005°42'0 0.0
2015-Apr-12 18:22N 43°36' W 005°42'0 0.0
2015-Apr-12 17:22N 43°36' W 005°42'0 0.0
2015-Apr-12 16:22N 43°36' W 005°42'0 0.0
2015-Apr-12 15:28N 43°36' W 005°42'0 0.0
2015-Apr-12 14:16N 43°36' W 005°42'0 0.0
2015-Apr-12 13:28N 43°36' W 005°42'0 0.0
2015-Apr-12 12:28N 43°36' W 005°42'0 0.0
2015-Apr-12 11:16N 43°36' W 005°42'0 0.0
2015-Apr-12 10:22N 43°36' W 005°42'0 0.0
2015-Apr-12 09:22N 43°36' W 005°42'0 0.0
2015-Apr-12 08:28N 43°36' W 005°42'0 0.0
2015-Apr-12 06:23N 43°36' W 005°42'3 3.9
2015-Apr-12 05:33N 43°39' W 005°44'  

Dump ship's entire track history